Hundvaag 1 weather for Jan 2008
Month no. 247
Obs.
Da.
Temp. Dew Point Precip. Wind
Speed
Wind gusts Cloud cover Press. Humidity Wind dir. Sunny OPT
01.01.2008 0,4   0,0 4,0   10 1031,8 65,0 90,0 1 77,5 %
02.01.2008 6,9   0,0 10,0   10 1031,5 62,0 112,5 1 80,0 %
03.01.2008 4,7   0,0 4,0   4 1027,4 50,0 90,0 1 65,0 %
04.01.2008 5,6   0,0 20,0   2 1019,0 55,0 67,5 1 52,5 %
05.01.2008 2,5   0,0 9,0   2 998,0 51,0 180,0   57,5 %
06.01.2008 3,7   2,5 9,0   8 996,9 67,0 157,5 1 72,5 %
07.01.2008 5,2   0,4 9,0   1 999,0 76,0 135,0   57,5 %
08.01.2008 2,1   0,5 2,0   3 1001,0 89,0 315,0 1 62,5 %
09.01.2008 2,7   4,8 11,0   0 992,5 88,0 157,5   47,5 %
10.01.2008 5,6   3,9 7,0   9 993,6 77,0 157,5 1 77,5 %
11.01.2008 5,4   9,6 16,0   3 991,2 83,0 225,0 1 50,0 %
12.01.2008 3,8   3,7 4,0   1 994,2 79,0 45,0   55,0 %
13.01.2008 3,3   0,0 0,0   0 1005,1 86,0 180,0   57,5 %
14.01.2008 8,1   6,2 2,0   1 996,3 63,0 157,5   60,0 %
15.01.2008 6,4   11,0 13,0   2 983,1 82,0 225,0   50,0 %
16.01.2008 4,8   16,3 11,0   0 972,9 90,0 22,5   37,5 %
17.01.2008 4,2   14,2 5,0   7 996,9 72,0 292,5 1 62,5 %
18.01.2008 6,2   0,0 1,0   1 996,3 68,0 135,0   62,5 %
19.01.2008 5,6   9,5 23,0   4 991,2 74,0 247,5 1 47,5 %
20.01.2008 6,2   1,0 7,0   1 1005,8 80,0 225,0   60,0 %
21.01.2008 2,4   5,0 5,0   4 997,3 86,0 0,0 1 60,0 %
22.01.2008 -2,1   0,2 0,0   9 1011,5 93,0 67,5 1 75,0 %
23.01.2008 3,5   2,3 2,0   2 1014,2 96,0 157,5   62,5 %
24.01.2008 6,1   5,1 3,0   5 1003,7 78,0 180,0 1 70,0 %
25.01.2008 7,3   3,0 14,0   0 1002,0 86,0 225,0   50,0 %
26.01.2008 5,4   1,8 4,0   0 1002,7 85,0 225,0   57,5 %
27.01.2008 3,0   4,0 3,0   10 1011,5 88,0 315,0 1 80,0 %
28.01.2008 6,7   3,0 2,0   2 1022,7 93,0 180,0   62,5 %
29.01.2008 7,4   0,0 7,0   0 1015,6 91,0 225,0   57,5 %
30.01.2008 2,7   3,5 1,0   1 1010,2 89,0 292,5 1 57,5 %
31.01.2008 4,9   8,8 15,0   0 993,6 88,0 157,5   42,5 %
Avrg/Sum 4,5   120,3 7,2   3,3 1003,5 78,4 169,1 15 60,2 %